Zodiac — WTH5653 — position and weather

sailwx.info

Track history (hours):
 
Tides and Currents Weather Stations Pressure Air Temp Water Temp Dewpoint Dewpoint Depression Visibility Wind Speed Wind Dir Waves Ship Positions

Zodiac

Ship's website: http://www.schoonerzodiac.com/

Owner: VESSEL ZODIAC CORP, Bellingham, WA. More information available from US FCC via Universal Licensing System and Coast Guard Vessel Documentation Center.

Last reported at 2019-Aug-22 08:30 UTC. Time now 2019-Aug-22 08:51 UTC.
Position N 50°11' W 124°49'.

Length 34 m.

Type: Sailing vessel. MMSI: 366968070.

Date/timePositionNaut miles runAvg speedWind from/ knotsBaromVisibWave heightAir tempDewpointWater temp
2019-Aug-22 08:30N 50°11' W 124°49'0 0.0
2019-Aug-22 08:00N 50°11' W 124°49'0 0.0
2019-Aug-22 07:30N 50°11' W 124°49'0 0.0
2019-Aug-22 07:00N 50°11' W 124°49'0 0.0
2019-Aug-22 06:30N 50°11' W 124°49'0 0.0
2019-Aug-22 06:00N 50°11' W 124°49'0 0.0
2019-Aug-22 05:30N 50°11' W 124°49'0 0.0
2019-Aug-22 05:00N 50°11' W 124°49'0 0.0
2019-Aug-22 04:30N 50°11' W 124°49'0 0.0
2019-Aug-22 04:00N 50°11' W 124°49'0 0.0
2019-Aug-22 03:30N 50°11' W 124°49'0 0.0
2019-Aug-22 02:59N 50°11' W 124°49'0 0.0
2019-Aug-22 02:30N 50°11' W 124°49'0 0.0
2019-Aug-22 02:00N 50°11' W 124°49'0 0.7
2019-Aug-22 01:30N 50°11' W 124°50'3 6.3
2019-Aug-22 01:00N 50°10' W 124°54'4 7.9
2019-Aug-22 00:30N 50°06' W 124°53'4 8.2
2019-Aug-22 00:00N 50°02' W 124°52'4 8.0
2019-Aug-21 23:30N 49°59' W 124°48'3 6.5
2019-Aug-21 23:00N 49°57' W 124°44'4 8.7
2019-Aug-21 22:30N 49°54' W 124°39'1 2.7
2019-Aug-21 22:00N 49°53' W 124°37'1 2.7
2019-Aug-21 21:28N 49°52' W 124°37'2 3.2
2019-Aug-21 21:00N 49°50' W 124°36'2 4.2
2019-Aug-21 20:28N 49°50' W 124°33'0 0.9
2019-Aug-21 20:00N 49°50' W 124°32'1 2.7
2019-Aug-21 19:30N 49°51' W 124°33'2 3.6
2019-Aug-21 18:59N 49°51' W 124°36'4 8.3
2019-Aug-21 18:30N 49°47' W 124°39'510.1
2019-Aug-21 17:58N 49°42' W 124°37'5 9.8
2019-Aug-21 17:30N 49°38' W 124°34'4 7.0
2019-Aug-21 17:00N 49°35' W 124°30'6 7.0
2019-Aug-21 16:11N 49°34' W 124°22'3 1.2
2019-Aug-21 13:25N 49°31' W 124°20'0 0.0
2019-Aug-21 13:00N 49°31' W 124°20'0 0.0
2019-Aug-21 12:28N 49°31' W 124°20'0 0.0
2019-Aug-21 12:00N 49°31' W 124°20'0 0.0
2019-Aug-21 11:10N 49°31' W 124°20'0 0.0
2019-Aug-21 10:49N 49°31' W 124°20'0 0.0
2019-Aug-21 10:14N 49°31' W 124°20'0 0.0
2019-Aug-21 10:00N 49°31' W 124°20'0 0.0
2019-Aug-21 06:48N 49°31' W 124°20'0 0.0
2019-Aug-21 06:26N 49°31' W 124°20'0 0.3
2019-Aug-21 05:54N 49°31' W 124°20'7 8.1
2019-Aug-21 05:02N 49°29' W 124°09'0 8.2
2019-Aug-21 05:00N 49°29' W 124°09'4 8.5
2019-Aug-21 04:30N 49°26' W 124°04'4 9.0
2019-Aug-21 04:00N 49°24' W 123°58'4 8.9
2019-Aug-21 03:30N 49°21' W 123°53'4 8.7
2019-Aug-21 03:00N 49°19' W 123°48'4 8.8
2019-Aug-21 02:30N 49°15' W 123°43'4 8.9
2019-Aug-21 02:00N 49°12' W 123°38'5 9.5
2019-Aug-21 01:30N 49°08' W 123°34'510.1
2019-Aug-21 01:00N 49°05' W 123°29'5 8.9
2019-Aug-21 00:30N 49°01' W 123°24'2 4.3
2019-Aug-21 00:00N 48°60' W 123°22'0 0.7
2019-Aug-20 23:30N 48°59' W 123°22'2 3.6
2019-Aug-20 23:00N 48°58' W 123°21'2 3.5
2019-Aug-20 22:30N 48°56' W 123°20'2 3.6
2019-Aug-20 22:00N 48°55' W 123°18'1 1.7
2019-Aug-20 21:30N 48°54' W 123°18'3 5.1
2019-Aug-20 21:00N 48°52' W 123°20'3 5.6
2019-Aug-20 20:30N 48°51' W 123°24'3 5.4
2019-Aug-20 20:00N 48°51' W 123°28'0 0.9
2019-Aug-20 19:30N 48°51' W 123°29'0 0.1
2019-Aug-20 19:00N 48°51' W 123°29'0 0.0
2019-Aug-20 18:30N 48°51' W 123°29'0 0.0
2019-Aug-20 18:00N 48°51' W 123°29'0 0.1
2019-Aug-20 17:29N 48°51' W 123°29'0 0.0
2019-Aug-20 16:59N 48°51' W 123°29'0 0.0
2019-Aug-20 16:29N 48°51' W 123°29'0 0.0
2019-Aug-20 16:00N 48°51' W 123°29'0 0.0
2019-Aug-20 15:30N 48°51' W 123°29'0 0.0
2019-Aug-20 14:58N 48°51' W 123°29'0 0.0
2019-Aug-20 14:28N 48°51' W 123°29'0 0.0
2019-Aug-20 13:59N 48°51' W 123°29'0 0.0
2019-Aug-20 13:30N 48°51' W 123°29'0 0.0
2019-Aug-20 12:54N 48°51' W 123°29'0 0.0
2019-Aug-20 12:29N 48°51' W 123°29'0 0.0
2019-Aug-20 11:59N 48°51' W 123°29'0 0.0
2019-Aug-20 11:30N 48°51' W 123°29'0 0.0
2019-Aug-20 11:00N 48°51' W 123°29'0 0.0
2019-Aug-20 10:23N 48°51' W 123°29'0 0.0
2019-Aug-20 09:59N 48°51' W 123°29'0 0.0
2019-Aug-20 09:28N 48°51' W 123°29'0 0.0
2019-Aug-20 08:57N 48°51' W 123°29'0 0.0
2019-Aug-20 08:30N 48°51' W 123°29'0 0.0
2019-Aug-20 07:56N 48°51' W 123°29'0 0.0
2019-Aug-20 07:30N 48°51' W 123°29'0 0.0
2019-Aug-20 07:00N 48°51' W 123°29'0 0.0
2019-Aug-20 06:30N 48°51' W 123°29'0 0.0
2019-Aug-20 05:58N 48°51' W 123°29'0 0.0
2019-Aug-20 05:20N 48°51' W 123°29'0 0.0
2019-Aug-20 05:00N 48°51' W 123°29'0 0.1
2019-Aug-20 04:30N 48°51' W 123°29'0 0.1
2019-Aug-20 03:55N 48°51' W 123°29'0 0.0
2019-Aug-20 03:30N 48°51' W 123°29'0 0.1
2019-Aug-20 02:59N 48°51' W 123°29'0 0.0
2019-Aug-20 02:29N 48°51' W 123°29'0 0.0
2019-Aug-20 02:00N 48°51' W 123°29'1 1.5
2019-Aug-20 01:30N 48°51' W 123°28'4 9.0
2019-Aug-20 01:00N 48°48' W 123°22'5 9.5
2019-Aug-20 00:30N 48°45' W 123°17'2 4.1
2019-Aug-20 00:00N 48°45' W 123°14'0 0.0
2019-Aug-19 23:30N 48°45' W 123°14'4 7.6
2019-Aug-19 23:00N 48°44' W 123°08'510.3
2019-Aug-19 22:30N 48°44' W 123°00'510.1
2019-Aug-19 22:00N 48°44' W 122°53'510.1
2019-Aug-19 21:30N 48°41' W 122°46'4 8.9
2019-Aug-19 21:00N 48°39' W 122°40'4 8.0
2019-Aug-19 20:30N 48°39' W 122°34'5 9.3
2019-Aug-19 19:59N 48°43' W 122°31'0 0.4
2019-Aug-19 19:30N 48°43' W 122°31'0 0.0
2019-Aug-19 19:00N 48°43' W 122°31'0 0.0
2019-Aug-19 18:30N 48°43' W 122°31'0 0.0
2019-Aug-19 18:00N 48°43' W 122°31'0 0.0
2019-Aug-19 17:30N 48°43' W 122°31'0 0.0
2019-Aug-19 17:00N 48°43' W 122°31'0 0.0
2019-Aug-19 16:30N 48°43' W 122°31'0 0.0
2019-Aug-19 16:00N 48°43' W 122°31'0 0.0
2019-Aug-19 15:30N 48°43' W 122°31'0 0.0
2019-Aug-19 15:00N 48°43' W 122°31'0 0.0
2019-Aug-19 14:30N 48°43' W 122°31'0 0.0
2019-Aug-19 14:00N 48°43' W 122°31'0 0.0
2019-Aug-19 13:30N 48°43' W 122°31'0 0.0
2019-Aug-19 13:00N 48°43' W 122°31'0 0.0
2019-Aug-19 12:30N 48°43' W 122°31'0 0.0
2019-Aug-19 12:00N 48°43' W 122°31'0 0.0
2019-Aug-19 11:30N 48°43' W 122°31'0 0.0
2019-Aug-19 11:00N 48°43' W 122°31'0 0.0
2019-Aug-19 10:30N 48°43' W 122°31'0 0.0
2019-Aug-19 10:00N 48°43' W 122°31'0 0.0
2019-Aug-19 09:30N 48°43' W 122°31'0 0.0
2019-Aug-19 09:00N 48°43' W 122°31'0 0.0
2019-Aug-19 08:30N 48°43' W 122°31'0 0.0
2019-Aug-19 08:00N 48°43' W 122°31'0 0.0
2019-Aug-19 07:30N 48°43' W 122°31'0 0.0
2019-Aug-19 07:00N 48°43' W 122°31'0 0.0
2019-Aug-19 06:30N 48°43' W 122°31'0 0.0
2019-Aug-19 06:00N 48°43' W 122°31'0 0.0
2019-Aug-19 05:30N 48°43' W 122°31'0 0.0
2019-Aug-19 04:59N 48°43' W 122°31'0 0.0
2019-Aug-19 04:29N 48°43' W 122°31'0 0.0
2019-Aug-19 04:00N 48°43' W 122°31'0 0.0
2019-Aug-19 03:30N 48°43' W 122°31'0 0.0
2019-Aug-19 03:00N 48°43' W 122°31'0 0.0
2019-Aug-19 02:29N 48°43' W 122°31'0 0.0
2019-Aug-19 02:00N 48°43' W 122°31'0 0.0
2019-Aug-19 01:30N 48°43' W 122°31'0 0.0
2019-Aug-19 01:00N 48°43' W 122°31'0 0.0
2019-Aug-19 00:30N 48°43' W 122°31'0 0.0
2019-Aug-19 00:00N 48°43' W 122°31'0 0.0
2019-Aug-18 23:30N 48°43' W 122°31'0 0.0
2019-Aug-18 22:58N 48°43' W 122°31'0 0.0
2019-Aug-18 22:30N 48°43' W 122°31'0 0.0
2019-Aug-18 21:59N 48°43' W 122°31'0 0.0
2019-Aug-18 21:30N 48°43' W 122°31'0 0.0
2019-Aug-18 21:00N 48°43' W 122°31'0 0.0
2019-Aug-18 20:29N 48°43' W 122°31'0 0.1
2019-Aug-18 20:00N 48°43' W 122°31'1 1.3
2019-Aug-18 19:30N 48°44' W 122°31'1 2.0
2019-Aug-18 19:00N 48°45' W 122°32'2 3.1
2019-Aug-18 18:29N 48°43' W 122°34'1 1.9
2019-Aug-18 18:00N 48°43' W 122°34'2 4.5
2019-Aug-18 17:30N 48°44' W 122°31'0 0.8
2019-Aug-18 16:59N 48°43' W 122°31'0 0.0
2019-Aug-18 16:30N 48°43' W 122°31'0 0.0
2019-Aug-18 16:00N 48°43' W 122°31'0 0.0
2019-Aug-18 15:30N 48°43' W 122°31'0 0.0
2019-Aug-18 15:00N 48°43' W 122°31'0 0.0
2019-Aug-18 14:30N 48°43' W 122°31'0 0.0
2019-Aug-18 14:00N 48°43' W 122°31'0 0.0
2019-Aug-18 13:30N 48°43' W 122°31'0 0.0
2019-Aug-18 13:00N 48°43' W 122°31'0 0.0
2019-Aug-18 12:30N 48°43' W 122°31'0 0.0
2019-Aug-18 12:00N 48°43' W 122°31'0 0.0
2019-Aug-18 11:30N 48°43' W 122°31'0 0.0
2019-Aug-18 11:00N 48°43' W 122°31'0 0.0
2019-Aug-18 10:30N 48°43' W 122°31'0 0.0
2019-Aug-18 10:00N 48°43' W 122°31'0 0.0
2019-Aug-18 09:30N 48°43' W 122°31'0 0.0
2019-Aug-18 09:00N 48°43' W 122°31'0 0.0
2019-Aug-18 08:30N 48°43' W 122°31'0 0.0
2019-Aug-18 08:00N 48°43' W 122°31'0 0.0
2019-Aug-18 07:00N 48°43' W 122°31'0 0.0
2019-Aug-18 06:30N 48°43' W 122°31'0 0.0
2019-Aug-18 06:00N 48°43' W 122°31'0 0.0
2019-Aug-18 05:30N 48°43' W 122°31'0 0.0
2019-Aug-18 05:00N 48°43' W 122°31'0 0.0
2019-Aug-18 04:30N 48°43' W 122°31'0 0.0
2019-Aug-18 04:00N 48°43' W 122°31'0 0.0
2019-Aug-18 03:30N 48°43' W 122°31'0 0.0
2019-Aug-18 03:00N 48°43' W 122°31'0 0.0
2019-Aug-18 02:30N 48°43' W 122°31'0 0.0
2019-Aug-18 02:00N 48°43' W 122°31'0 0.0
2019-Aug-18 01:30N 48°43' W 122°31'0 0.0
2019-Aug-18 01:00N 48°43' W 122°31'0 0.0
2019-Aug-18 00:30N 48°43' W 122°31'0 0.0
2019-Aug-18 00:00N 48°43' W 122°31'0 0.0
2019-Aug-17 23:30N 48°43' W 122°31'0 0.0
2019-Aug-17 23:00N 48°43' W 122°31'0 0.0
2019-Aug-17 22:30N 48°43' W 122°31'0 0.0
2019-Aug-17 22:00N 48°43' W 122°31'0 0.0
2019-Aug-17 21:30N 48°43' W 122°31'0 0.3
2019-Aug-17 21:00N 48°43' W 122°31'2 4.5
2019-Aug-17 20:30N 48°41' W 122°32'3 5.7
2019-Aug-17 20:00N 48°39' W 122°34'4 8.8
2019-Aug-17 19:30N 48°40' W 122°40'5 9.6
2019-Aug-17 19:00N 48°41' W 122°47'4 8.8
2019-Aug-17 18:30N 48°44' W 122°53'7 6.5
2019-Aug-17 17:30N 48°41' W 123°01'3 6.0
2019-Aug-17 17:00N 48°39' W 123°06'3 5.7
2019-Aug-17 16:30N 48°39' W 123°10'1 2.4
2019-Aug-17 16:00N 48°40' W 123°11'0 0.0
2019-Aug-17 15:30N 48°40' W 123°11'0 0.0
2019-Aug-17 15:00N 48°40' W 123°11'0 0.0
2019-Aug-17 14:30N 48°40' W 123°11'0 0.0
2019-Aug-17 14:00N 48°40' W 123°11'0 0.0
2019-Aug-17 13:30N 48°40' W 123°11'0 0.0
2019-Aug-17 13:00N 48°40' W 123°11'0 0.0
2019-Aug-17 12:30N 48°40' W 123°11'0 0.0
2019-Aug-17 12:00N 48°40' W 123°11'0 0.0
2019-Aug-17 11:30N 48°40' W 123°11'0 0.0
2019-Aug-17 11:00N 48°40' W 123°11'0 0.0
2019-Aug-17 10:30N 48°40' W 123°11'0 0.0
2019-Aug-17 10:00N 48°40' W 123°11'0 0.0
2019-Aug-17 09:30N 48°40' W 123°11'0 0.0
2019-Aug-17 09:00N 48°40' W 123°11'0 0.0
2019-Aug-17 08:30N 48°40' W 123°11'0 0.0
2019-Aug-17 08:00N 48°40' W 123°11'0 0.0
2019-Aug-17 07:30N 48°40' W 123°11'0 0.0
2019-Aug-17 07:00N 48°40' W 123°11'0 0.0
2019-Aug-17 06:30N 48°40' W 123°11'0 0.0
2019-Aug-17 06:00N 48°40' W 123°11'0 0.0
2019-Aug-17 05:30N 48°40' W 123°11'0 0.0
2019-Aug-17 05:00N 48°40' W 123°11'0 0.0
2019-Aug-17 04:30N 48°40' W 123°11'0 0.0
2019-Aug-17 04:00N 48°40' W 123°11'0 0.0
2019-Aug-17 03:30N 48°40' W 123°11'0 0.0
2019-Aug-17 03:00N 48°40' W 123°11'0 0.0
2019-Aug-17 02:30N 48°40' W 123°11'0 0.0
2019-Aug-17 02:00N 48°40' W 123°11'0 0.0
2019-Aug-17 01:30N 48°40' W 123°11'0 0.8
2019-Aug-17 01:00N 48°40' W 123°11'3 6.2
2019-Aug-17 00:30N 48°37' W 123°10'0 0.0
2019-Aug-17 00:00N 48°37' W 123°10'0 0.0
2019-Aug-16 23:30N 48°37' W 123°10'0 0.0
2019-Aug-16 23:00N 48°37' W 123°10'0 0.0
2019-Aug-16 22:30N 48°37' W 123°10'0 0.0
2019-Aug-16 22:00N 48°37' W 123°10'0 0.0
2019-Aug-16 21:30N 48°37' W 123°10'0 0.0
2019-Aug-16 21:00N 48°37' W 123°10'0 0.0
2019-Aug-16 20:30N 48°37' W 123°10'0 0.0
2019-Aug-16 20:00N 48°37' W 123°10'1 2.4
2019-Aug-16 19:30N 48°38' W 123°10'3 6.3
2019-Aug-16 19:00N 48°38' W 123°05'1 2.9
2019-Aug-16 18:30N 48°37' W 123°04'1 2.4
2019-Aug-16 18:00N 48°36' W 123°03'1 1.0
2019-Aug-16 17:30N 48°36' W 123°03'3 6.5
2019-Aug-16 17:00N 48°34' W 122°59'0 0.2
2019-Aug-16 16:30N 48°34' W 122°59'0 0.1
2019-Aug-16 16:00N 48°34' W 122°59'0 0.0
2019-Aug-16 15:30N 48°34' W 122°59'0 0.0
2019-Aug-16 15:00N 48°34' W 122°59'0 0.0
2019-Aug-16 14:30N 48°34' W 122°59'0 0.0
2019-Aug-16 14:00N 48°34' W 122°59'0 0.0
2019-Aug-16 13:30N 48°34' W 122°59'0 0.1
2019-Aug-16 13:00N 48°34' W 122°59'0 0.0
2019-Aug-16 12:30N 48°34' W 122°59'0 0.1
2019-Aug-16 12:00N 48°34' W 122°59'0 0.0
2019-Aug-16 11:30N 48°34' W 122°59'0 0.1
2019-Aug-16 11:00N 48°34' W 122°59'0 0.1
2019-Aug-16 10:30N 48°34' W 122°59'0 0.0
2019-Aug-16 10:00N 48°34' W 122°59'0 0.0
2019-Aug-16 09:30N 48°34' W 122°59'0 0.0
2019-Aug-16 09:00N 48°34' W 122°59'0 0.0
2019-Aug-16 08:30N 48°34' W 122°59'0 0.0
2019-Aug-16 08:00N 48°34' W 122°59'0 0.1
2019-Aug-16 07:30N 48°34' W 122°59'0 0.0
2019-Aug-16 07:00N 48°34' W 122°59'0 0.1
2019-Aug-16 06:30N 48°34' W 122°59'0 0.0
2019-Aug-16 06:00N 48°34' W 122°59'0 0.1
2019-Aug-16 05:31N 48°34' W 122°59'0 0.0
2019-Aug-16 05:00N 48°34' W 122°59'0 0.1
2019-Aug-16 04:30N 48°34' W 122°59'0 0.1
2019-Aug-16 04:01N 48°34' W 122°59'0 0.0
2019-Aug-16 03:30N 48°34' W 122°59'0 0.0
2019-Aug-16 03:00N 48°34' W 122°59'0 0.1
2019-Aug-16 02:30N 48°34' W 122°59'0 0.0
2019-Aug-16 02:00N 48°34' W 122°59'0 0.1
2019-Aug-16 01:31N 48°34' W 122°59'2 3.3
2019-Aug-16 01:00N 48°33' W 123°01'0 0.0
2019-Aug-16 00:30N 48°33' W 123°01'0 0.0
2019-Aug-16 00:00N 48°33' W 123°01'0 0.0
2019-Aug-15 23:31N 48°33' W 123°01'0 0.0
2019-Aug-15 23:01N 48°33' W 123°01'0 0.0
2019-Aug-15 22:30N 48°33' W 123°01'0 0.1
2019-Aug-15 22:01N 48°33' W 123°01'0 0.1
2019-Aug-15 21:30N 48°33' W 123°01'0 0.0
2019-Aug-15 21:00N 48°33' W 123°01'0 0.1
2019-Aug-15 20:31N 48°33' W 123°01'1 2.4
2019-Aug-15 20:01N 48°33' W 122°59'2 3.5
2019-Aug-15 19:31N 48°32' W 122°56'0 0.7
2019-Aug-15 19:01N 48°32' W 122°56'0 0.6
2019-Aug-15 18:30N 48°32' W 122°56'2 3.3
2019-Aug-15 18:00N 48°34' W 122°55'2 4.3
2019-Aug-15 17:30N 48°35' W 122°52'2 4.1
2019-Aug-15 17:01N 48°33' W 122°51'0 0.7
2019-Aug-15 16:31N 48°32' W 122°51'0 0.0
2019-Aug-15 16:01N 48°32' W 122°51'0 0.0
2019-Aug-15 15:30N 48°32' W 122°51'0 0.0
2019-Aug-15 15:01N 48°32' W 122°51'0 0.0
2019-Aug-15 14:30N 48°32' W 122°51'0 0.0
2019-Aug-15 14:00N 48°32' W 122°51'0 0.0
2019-Aug-15 13:30N 48°32' W 122°51'0 0.0
2019-Aug-15 13:00N 48°32' W 122°51'0 0.0
2019-Aug-15 12:30N 48°32' W 122°51'0 0.0
2019-Aug-15 12:01N 48°32' W 122°51'0 0.0
2019-Aug-15 11:31N 48°32' W 122°51'0 0.0
2019-Aug-15 11:00N 48°32' W 122°51'0 0.0
2019-Aug-15 10:30N 48°32' W 122°51'0 0.0
2019-Aug-15 10:00N 48°32' W 122°51'0 0.0
2019-Aug-15 09:30N 48°32' W 122°51'0 0.0
2019-Aug-15 09:00N 48°32' W 122°51'0 0.0
2019-Aug-15 08:31N 48°32' W 122°51'0 0.0
2019-Aug-15 08:01N 48°32' W 122°51'0 0.0
2019-Aug-15 07:30N 48°32' W 122°51'0 0.0
2019-Aug-15 07:00N 48°32' W 122°51'0 0.0
2019-Aug-15 06:30N 48°32' W 122°51'0 0.0
2019-Aug-15 06:00N 48°32' W 122°51'0 0.0
2019-Aug-15 05:30N 48°32' W 122°51'0 0.0
2019-Aug-15 05:01N 48°32' W 122°51'0 0.0
2019-Aug-15 04:30N 48°32' W 122°51'0 0.1
2019-Aug-15 04:00N 48°32' W 122°51'0 0.0
2019-Aug-15 03:31N 48°32' W 122°51'0 0.0
2019-Aug-15 03:00N 48°32' W 122°51'0 0.0
2019-Aug-15 02:30N 48°32' W 122°51'1 1.1
2019-Aug-15 02:00N 48°33' W 122°51'4 8.1
2019-Aug-15 01:31N 48°37' W 122°51'4 8.1
2019-Aug-15 01:01N 48°41' W 122°54'1 1.4
2019-Aug-15 00:30N 48°41' W 122°54'0 0.0
2019-Aug-15 00:00N 48°41' W 122°54'0 0.1
2019-Aug-14 23:31N 48°41' W 122°54'0 0.0
2019-Aug-14 23:00N 48°41' W 122°54'0 0.0
2019-Aug-14 22:30N 48°41' W 122°54'0 0.0
2019-Aug-14 22:00N 48°41' W 122°54'0 0.1
2019-Aug-14 21:30N 48°41' W 122°54'0 0.1
2019-Aug-14 21:01N 48°41' W 122°54'3 5.3
2019-Aug-14 20:31N 48°39' W 122°53'4 7.4
2019-Aug-14 20:01N 48°36' W 122°50'3 6.9
2019-Aug-14 19:30N 48°37' W 122°45'4 8.2
2019-Aug-14 19:01N 48°39' W 122°39'4 7.0
2019-Aug-14 18:30N 48°39' W 122°34'4 8.7
2019-Aug-14 18:00N 48°43' W 122°31'0 0.5
2019-Aug-14 17:10N 48°43' W 122°31'0 0.0
2019-Aug-14 16:24N 48°43' W 122°31'0 0.0
2019-Aug-14 16:00N 48°43' W 122°31'0 0.0
2019-Aug-14 15:28N 48°43' W 122°31'0 0.0
2019-Aug-14 15:00N 48°43' W 122°31'0 0.0
2019-Aug-14 14:30N 48°43' W 122°31'0 0.0
2019-Aug-14 14:00N 48°43' W 122°31'0 0.0
2019-Aug-14 13:30N 48°43' W 122°31'0 0.0
2019-Aug-14 13:00N 48°43' W 122°31'0 0.0
2019-Aug-14 12:30N 48°43' W 122°31'0 0.0
2019-Aug-14 11:51N 48°43' W 122°31'0 0.0
2019-Aug-14 11:30N 48°43' W 122°31'0 0.0
2019-Aug-14 11:00N 48°43' W 122°31'0 0.0
2019-Aug-14 10:30N 48°43' W 122°31'0 0.0
2019-Aug-14 10:00N 48°43' W 122°31'0 0.0
2019-Aug-14 09:30N 48°43' W 122°31'0 0.0
2019-Aug-14 09:00N 48°43' W 122°31'0 0.0
2019-Aug-14 07:37N 48°43' W 122°31'0 0.0
2019-Aug-14 07:16N 48°43' W 122°31'0 0.0
2019-Aug-14 07:00N 48°43' W 122°31'0 0.0
2019-Aug-14 06:30N 48°43' W 122°31'0 0.0
2019-Aug-14 05:59N 48°43' W 122°31'0 0.0
2019-Aug-14 05:30N 48°43' W 122°31'0 0.0
2019-Aug-14 05:00N 48°43' W 122°31'0 0.0
2019-Aug-14 04:30N 48°43' W 122°31'0 0.0
2019-Aug-14 04:00N 48°43' W 122°31'0 0.0
2019-Aug-14 03:30N 48°43' W 122°31'0 0.0
2019-Aug-14 02:59N 48°43' W 122°31'0 0.0
2019-Aug-14 02:30N 48°43' W 122°31'0 0.0
2019-Aug-14 01:59N 48°43' W 122°31'0 0.0
2019-Aug-14 01:30N 48°43' W 122°31'0 0.0
2019-Aug-14 00:29N 48°43' W 122°31'0 0.0
2019-Aug-14 00:00N 48°43' W 122°31'0 0.0
2019-Aug-13 23:30N 48°43' W 122°31'0 0.0
2019-Aug-13 23:00N 48°43' W 122°31'0 0.0
2019-Aug-13 22:30N 48°43' W 122°31'0 0.0
2019-Aug-13 22:00N 48°43' W 122°31'0 0.0
2019-Aug-13 21:30N 48°43' W 122°31'0 0.0
2019-Aug-13 21:00N 48°43' W 122°31'0 0.0
2019-Aug-13 20:30N 48°43' W 122°31'0 0.0
2019-Aug-13 20:00N 48°43' W 122°31'0 0.0
2019-Aug-13 19:30N 48°43' W 122°31'0 0.0
2019-Aug-13 19:00N 48°43' W 122°31'0 0.0
2019-Aug-13 18:30N 48°43' W 122°31'0 0.0
2019-Aug-13 18:00N 48°43' W 122°31'0 0.0
2019-Aug-13 17:30N 48°43' W 122°31'0 0.0
2019-Aug-13 17:00N 48°43' W 122°31'0 0.0
2019-Aug-13 16:30N 48°43' W 122°31'0 0.0
2019-Aug-13 16:00N 48°43' W 122°31'0 0.0
2019-Aug-13 15:30N 48°43' W 122°31'0 0.0
2019-Aug-13 15:00N 48°43' W 122°31'0 0.0
2019-Aug-13 14:30N 48°43' W 122°31'0 0.0
2019-Aug-13 14:00N 48°43' W 122°31'0 0.0
2019-Aug-13 13:30N 48°43' W 122°31'0 0.0
2019-Aug-13 13:00N 48°43' W 122°31'0 0.0
2019-Aug-13 12:30N 48°43' W 122°31'0 0.0
2019-Aug-13 12:00N 48°43' W 122°31'0 0.0
2019-Aug-13 11:30N 48°43' W 122°31'0 0.0
2019-Aug-13 11:00N 48°43' W 122°31'0 0.0
2019-Aug-13 10:30N 48°43' W 122°31'0 0.0
2019-Aug-13 10:00N 48°43' W 122°31'0 0.0
2019-Aug-13 09:30N 48°43' W 122°31'0 0.0
2019-Aug-13 09:00N 48°43' W 122°31'0 0.0
2019-Aug-13 08:30N 48°43' W 122°31'0 0.0
2019-Aug-13 08:00N 48°43' W 122°31'0 0.0
2019-Aug-13 07:30N 48°43' W 122°31'0 0.0
2019-Aug-13 07:00N 48°43' W 122°31'0 0.0
2019-Aug-13 06:30N 48°43' W 122°31'0 0.0
2019-Aug-13 06:00N 48°43' W 122°31'0 0.0
2019-Aug-13 05:30N 48°43' W 122°31'0 0.0
2019-Aug-13 05:00N 48°43' W 122°31'0 0.0
2019-Aug-13 04:30N 48°43' W 122°31'0 0.0
2019-Aug-13 04:00N 48°43' W 122°31'0 0.5
2019-Aug-13 03:30N 48°44' W 122°31'1 1.9
2019-Aug-13 03:00N 48°44' W 122°32'1 1.8
2019-Aug-13 02:30N 48°45' W 122°32'1 1.2
2019-Aug-13 01:30N 48°44' W 122°32'1 2.3
2019-Aug-13 01:00N 48°43' W 122°31'0 0.0
2019-Aug-13 00:29N 48°43' W 122°31'0 0.0
2019-Aug-13 00:00N 48°43' W 122°31'0 0.0
2019-Aug-12 23:30N 48°43' W 122°31'0 0.0
2019-Aug-12 23:00N 48°43' W 122°31'0 0.0
2019-Aug-12 22:30N 48°43' W 122°31'0 0.0
2019-Aug-12 22:00N 48°43' W 122°31'0 0.0
2019-Aug-12 21:30N 48°43' W 122°31'0 0.0
2019-Aug-12 20:59N 48°43' W 122°31'0 0.4
2019-Aug-12 20:31N 48°44' W 122°31'1 1.6
2019-Aug-12 20:00N 48°44' W 122°31'0 0.9
2019-Aug-12 19:30N 48°44' W 122°32'0 0.4
2019-Aug-12 18:58N 48°44' W 122°32'1 1.6
2019-Aug-12 18:30N 48°44' W 122°31'1 1.0
2019-Aug-12 18:00N 48°43' W 122°31'0 0.0
2019-Aug-12 17:30N 48°43' W 122°31'0 0.0
2019-Aug-12 17:00N 48°43' W 122°31'0 0.0
2019-Aug-12 16:30N 48°43' W 122°31'0 0.0
2019-Aug-12 16:00N 48°43' W 122°31'0 0.0
2019-Aug-12 15:30N 48°43' W 122°31'0 0.0
2019-Aug-12 15:00N 48°43' W 122°31'0 0.0
2019-Aug-12 14:30N 48°43' W 122°31'0 0.0
2019-Aug-12 14:00N 48°43' W 122°31'0 0.0
2019-Aug-12 13:30N 48°43' W 122°31'0 0.0
2019-Aug-12 13:00N 48°43' W 122°31'0 0.0
2019-Aug-12 12:30N 48°43' W 122°31'0 0.0
2019-Aug-12 12:00N 48°43' W 122°31'0 0.0
2019-Aug-12 11:30N 48°43' W 122°31'0 0.0
2019-Aug-12 11:00N 48°43' W 122°31'0 0.0
2019-Aug-12 10:30N 48°43' W 122°31'0 0.0
2019-Aug-12 10:00N 48°43' W 122°31'0 0.0
2019-Aug-12 09:30N 48°43' W 122°31'0 0.0
2019-Aug-12 09:00N 48°43' W 122°31'  
Track history (hours):
 
Tides and Currents Weather Stations Pressure Air Temp Water Temp Dewpoint Dewpoint Depression Visibility Wind Speed Wind Dir Waves Ship Positions

Zodiac

Ship's website: http://www.schoonerzodiac.com/

Owner: VESSEL ZODIAC CORP, Bellingham, WA. More information available from US FCC via Universal Licensing System and Coast Guard Vessel Documentation Center.

Last reported at 2019-Aug-22 08:30 UTC. Time now 2019-Aug-22 08:51 UTC.
Position N 50°11' W 124°49'.

Length 34 m.

Type: Sailing vessel. MMSI: 366968070.

Date/timePositionNaut miles runAvg speedWind from/ knotsBaromVisibWave heightAir tempDewpointWater temp
2019-Aug-22 08:30N 50°11' W 124°49'0 0.0
2019-Aug-22 08:00N 50°11' W 124°49'0 0.0
2019-Aug-22 07:30N 50°11' W 124°49'0 0.0
2019-Aug-22 07:00N 50°11' W 124°49'0 0.0
2019-Aug-22 06:30N 50°11' W 124°49'0 0.0
2019-Aug-22 06:00N 50°11' W 124°49'0 0.0
2019-Aug-22 05:30N 50°11' W 124°49'0 0.0
2019-Aug-22 05:00N 50°11' W 124°49'0 0.0
2019-Aug-22 04:30N 50°11' W 124°49'0 0.0
2019-Aug-22 04:00N 50°11' W 124°49'0 0.0
2019-Aug-22 03:30N 50°11' W 124°49'0 0.0
2019-Aug-22 02:59N 50°11' W 124°49'0 0.0
2019-Aug-22 02:30N 50°11' W 124°49'0 0.0
2019-Aug-22 02:00N 50°11' W 124°49'0 0.7
2019-Aug-22 01:30N 50°11' W 124°50'3 6.3
2019-Aug-22 01:00N 50°10' W 124°54'4 7.9
2019-Aug-22 00:30N 50°06' W 124°53'4 8.2
2019-Aug-22 00:00N 50°02' W 124°52'4 8.0
2019-Aug-21 23:30N 49°59' W 124°48'3 6.5
2019-Aug-21 23:00N 49°57' W 124°44'4 8.7
2019-Aug-21 22:30N 49°54' W 124°39'1 2.7
2019-Aug-21 22:00N 49°53' W 124°37'1 2.7
2019-Aug-21 21:28N 49°52' W 124°37'2 3.2
2019-Aug-21 21:00N 49°50' W 124°36'2 4.2
2019-Aug-21 20:28N 49°50' W 124°33'0 0.9
2019-Aug-21 20:00N 49°50' W 124°32'1 2.7
2019-Aug-21 19:30N 49°51' W 124°33'2 3.6
2019-Aug-21 18:59N 49°51' W 124°36'4 8.3
2019-Aug-21 18:30N 49°47' W 124°39'510.1
2019-Aug-21 17:58N 49°42' W 124°37'5 9.8
2019-Aug-21 17:30N 49°38' W 124°34'4 7.0
2019-Aug-21 17:00N 49°35' W 124°30'6 7.0
2019-Aug-21 16:11N 49°34' W 124°22'3 1.2
2019-Aug-21 13:25N 49°31' W 124°20'0 0.0
2019-Aug-21 13:00N 49°31' W 124°20'0 0.0
2019-Aug-21 12:28N 49°31' W 124°20'0 0.0
2019-Aug-21 12:00N 49°31' W 124°20'0 0.0
2019-Aug-21 11:10N 49°31' W 124°20'0 0.0
2019-Aug-21 10:49N 49°31' W 124°20'0 0.0
2019-Aug-21 10:14N 49°31' W 124°20'0 0.0
2019-Aug-21 10:00N 49°31' W 124°20'0 0.0
2019-Aug-21 06:48N 49°31' W 124°20'0 0.0
2019-Aug-21 06:26N 49°31' W 124°20'0 0.3
2019-Aug-21 05:54N 49°31' W 124°20'7 8.1
2019-Aug-21 05:02N 49°29' W 124°09'0 8.2
2019-Aug-21 05:00N 49°29' W 124°09'4 8.5
2019-Aug-21 04:30N 49°26' W 124°04'4 9.0
2019-Aug-21 04:00N 49°24' W 123°58'4 8.9
2019-Aug-21 03:30N 49°21' W 123°53'4 8.7
2019-Aug-21 03:00N 49°19' W 123°48'4 8.8
2019-Aug-21 02:30N 49°15' W 123°43'4 8.9
2019-Aug-21 02:00N 49°12' W 123°38'5 9.5
2019-Aug-21 01:30N 49°08' W 123°34'510.1
2019-Aug-21 01:00N 49°05' W 123°29'5 8.9
2019-Aug-21 00:30N 49°01' W 123°24'2 4.3
2019-Aug-21 00:00N 48°60' W 123°22'0 0.7
2019-Aug-20 23:30N 48°59' W 123°22'2 3.6
2019-Aug-20 23:00N 48°58' W 123°21'2 3.5
2019-Aug-20 22:30N 48°56' W 123°20'2 3.6
2019-Aug-20 22:00N 48°55' W 123°18'1 1.7
2019-Aug-20 21:30N 48°54' W 123°18'3 5.1
2019-Aug-20 21:00N 48°52' W 123°20'3 5.6
2019-Aug-20 20:30N 48°51' W 123°24'3 5.4
2019-Aug-20 20:00N 48°51' W 123°28'0 0.9
2019-Aug-20 19:30N 48°51' W 123°29'0 0.1
2019-Aug-20 19:00N 48°51' W 123°29'0 0.0
2019-Aug-20 18:30N 48°51' W 123°29'0 0.0
2019-Aug-20 18:00N 48°51' W 123°29'0 0.1
2019-Aug-20 17:29N 48°51' W 123°29'0 0.0
2019-Aug-20 16:59N 48°51' W 123°29'0 0.0
2019-Aug-20 16:29N 48°51' W 123°29'0 0.0
2019-Aug-20 16:00N 48°51' W 123°29'0 0.0
2019-Aug-20 15:30N 48°51' W 123°29'0 0.0
2019-Aug-20 14:58N 48°51' W 123°29'0 0.0
2019-Aug-20 14:28N 48°51' W 123°29'0 0.0
2019-Aug-20 13:59N 48°51' W 123°29'0 0.0
2019-Aug-20 13:30N 48°51' W 123°29'0 0.0
2019-Aug-20 12:54N 48°51' W 123°29'0 0.0
2019-Aug-20 12:29N 48°51' W 123°29'0 0.0
2019-Aug-20 11:59N 48°51' W 123°29'0 0.0
2019-Aug-20 11:30N 48°51' W 123°29'0 0.0
2019-Aug-20 11:00N 48°51' W 123°29'0 0.0
2019-Aug-20 10:23N 48°51' W 123°29'0 0.0
2019-Aug-20 09:59N 48°51' W 123°29'0 0.0
2019-Aug-20 09:28N 48°51' W 123°29'0 0.0
2019-Aug-20 08:57N 48°51' W 123°29'0 0.0
2019-Aug-20 08:30N 48°51' W 123°29'0 0.0
2019-Aug-20 07:56N 48°51' W 123°29'0 0.0
2019-Aug-20 07:30N 48°51' W 123°29'0 0.0
2019-Aug-20 07:00N 48°51' W 123°29'0 0.0
2019-Aug-20 06:30N 48°51' W 123°29'0 0.0
2019-Aug-20 05:58N 48°51' W 123°29'0 0.0
2019-Aug-20 05:20N 48°51' W 123°29'0 0.0
2019-Aug-20 05:00N 48°51' W 123°29'0 0.1
2019-Aug-20 04:30N 48°51' W 123°29'0 0.1
2019-Aug-20 03:55N 48°51' W 123°29'0 0.0
2019-Aug-20 03:30N 48°51' W 123°29'0 0.1
2019-Aug-20 02:59N 48°51' W 123°29'0 0.0
2019-Aug-20 02:29N 48°51' W 123°29'0 0.0
2019-Aug-20 02:00N 48°51' W 123°29'1 1.5
2019-Aug-20 01:30N 48°51' W 123°28'4 9.0
2019-Aug-20 01:00N 48°48' W 123°22'5 9.5
2019-Aug-20 00:30N 48°45' W 123°17'2 4.1
2019-Aug-20 00:00N 48°45' W 123°14'0 0.0
2019-Aug-19 23:30N 48°45' W 123°14'4 7.6
2019-Aug-19 23:00N 48°44' W 123°08'510.3
2019-Aug-19 22:30N 48°44' W 123°00'510.1
2019-Aug-19 22:00N 48°44' W 122°53'510.1
2019-Aug-19 21:30N 48°41' W 122°46'4 8.9
2019-Aug-19 21:00N 48°39' W 122°40'4 8.0
2019-Aug-19 20:30N 48°39' W 122°34'5 9.3
2019-Aug-19 19:59N 48°43' W 122°31'0 0.4
2019-Aug-19 19:30N 48°43' W 122°31'0 0.0
2019-Aug-19 19:00N 48°43' W 122°31'0 0.0
2019-Aug-19 18:30N 48°43' W 122°31'0 0.0
2019-Aug-19 18:00N 48°43' W 122°31'0 0.0
2019-Aug-19 17:30N 48°43' W 122°31'0 0.0
2019-Aug-19 17:00N 48°43' W 122°31'0 0.0
2019-Aug-19 16:30N 48°43' W 122°31'0 0.0
2019-Aug-19 16:00N 48°43' W 122°31'0 0.0
2019-Aug-19 15:30N 48°43' W 122°31'0 0.0
2019-Aug-19 15:00N 48°43' W 122°31'0 0.0
2019-Aug-19 14:30N 48°43' W 122°31'0 0.0
2019-Aug-19 14:00N 48°43' W 122°31'0 0.0
2019-Aug-19 13:30N 48°43' W 122°31'0 0.0
2019-Aug-19 13:00N 48°43' W 122°31'0 0.0
2019-Aug-19 12:30N 48°43' W 122°31'0 0.0
2019-Aug-19 12:00N 48°43' W 122°31'0 0.0
2019-Aug-19 11:30N 48°43' W 122°31'0 0.0
2019-Aug-19 11:00N 48°43' W 122°31'0 0.0
2019-Aug-19 10:30N 48°43' W 122°31'0 0.0
2019-Aug-19 10:00N 48°43' W 122°31'0 0.0
2019-Aug-19 09:30N 48°43' W 122°31'0 0.0
2019-Aug-19 09:00N 48°43' W 122°31'0 0.0
2019-Aug-19 08:30N 48°43' W 122°31'0 0.0
2019-Aug-19 08:00N 48°43' W 122°31'0 0.0
2019-Aug-19 07:30N 48°43' W 122°31'0 0.0
2019-Aug-19 07:00N 48°43' W 122°31'0 0.0
2019-Aug-19 06:30N 48°43' W 122°31'0 0.0
2019-Aug-19 06:00N 48°43' W 122°31'0 0.0
2019-Aug-19 05:30N 48°43' W 122°31'0 0.0
2019-Aug-19 04:59N 48°43' W 122°31'0 0.0
2019-Aug-19 04:29N 48°43' W 122°31'0 0.0
2019-Aug-19 04:00N 48°43' W 122°31'0 0.0
2019-Aug-19 03:30N 48°43' W 122°31'0 0.0
2019-Aug-19 03:00N 48°43' W 122°31'0 0.0
2019-Aug-19 02:29N 48°43' W 122°31'0 0.0
2019-Aug-19 02:00N 48°43' W 122°31'0 0.0
2019-Aug-19 01:30N 48°43' W 122°31'0 0.0
2019-Aug-19 01:00N 48°43' W 122°31'0 0.0
2019-Aug-19 00:30N 48°43' W 122°31'0 0.0
2019-Aug-19 00:00N 48°43' W 122°31'0 0.0
2019-Aug-18 23:30N 48°43' W 122°31'0 0.0
2019-Aug-18 22:58N 48°43' W 122°31'0 0.0
2019-Aug-18 22:30N 48°43' W 122°31'0 0.0
2019-Aug-18 21:59N 48°43' W 122°31'0 0.0
2019-Aug-18 21:30N 48°43' W 122°31'0 0.0
2019-Aug-18 21:00N 48°43' W 122°31'0 0.0
2019-Aug-18 20:29N 48°43' W 122°31'0 0.1
2019-Aug-18 20:00N 48°43' W 122°31'1 1.3
2019-Aug-18 19:30N 48°44' W 122°31'1 2.0
2019-Aug-18 19:00N 48°45' W 122°32'2 3.1
2019-Aug-18 18:29N 48°43' W 122°34'1 1.9
2019-Aug-18 18:00N 48°43' W 122°34'2 4.5
2019-Aug-18 17:30N 48°44' W 122°31'0 0.8
2019-Aug-18 16:59N 48°43' W 122°31'0 0.0
2019-Aug-18 16:30N 48°43' W 122°31'0 0.0
2019-Aug-18 16:00N 48°43' W 122°31'0 0.0
2019-Aug-18 15:30N 48°43' W 122°31'0 0.0
2019-Aug-18 15:00N 48°43' W 122°31'0 0.0
2019-Aug-18 14:30N 48°43' W 122°31'0 0.0
2019-Aug-18 14:00N 48°43' W 122°31'0 0.0
2019-Aug-18 13:30N 48°43' W 122°31'0 0.0
2019-Aug-18 13:00N 48°43' W 122°31'0 0.0
2019-Aug-18 12:30N 48°43' W 122°31'0 0.0
2019-Aug-18 12:00N 48°43' W 122°31'0 0.0
2019-Aug-18 11:30N 48°43' W 122°31'0 0.0
2019-Aug-18 11:00N 48°43' W 122°31'0 0.0
2019-Aug-18 10:30N 48°43' W 122°31'0 0.0
2019-Aug-18 10:00N 48°43' W 122°31'0 0.0
2019-Aug-18 09:30N 48°43' W 122°31'0 0.0
2019-Aug-18 09:00N 48°43' W 122°31'0 0.0
2019-Aug-18 08:30N 48°43' W 122°31'0 0.0
2019-Aug-18 08:00N 48°43' W 122°31'0 0.0
2019-Aug-18 07:00N 48°43' W 122°31'0 0.0
2019-Aug-18 06:30N 48°43' W 122°31'0 0.0
2019-Aug-18 06:00N 48°43' W 122°31'0 0.0
2019-Aug-18 05:30N 48°43' W 122°31'0 0.0
2019-Aug-18 05:00N 48°43' W 122°31'0 0.0
2019-Aug-18 04:30N 48°43' W 122°31'0 0.0
2019-Aug-18 04:00N 48°43' W 122°31'0 0.0
2019-Aug-18 03:30N 48°43' W 122°31'0 0.0
2019-Aug-18 03:00N 48°43' W 122°31'0 0.0
2019-Aug-18 02:30N 48°43' W 122°31'0 0.0
2019-Aug-18 02:00N 48°43' W 122°31'0 0.0
2019-Aug-18 01:30N 48°43' W 122°31'0 0.0
2019-Aug-18 01:00N 48°43' W 122°31'0 0.0
2019-Aug-18 00:30N 48°43' W 122°31'0 0.0
2019-Aug-18 00:00N 48°43' W 122°31'0 0.0
2019-Aug-17 23:30N 48°43' W 122°31'0 0.0
2019-Aug-17 23:00N 48°43' W 122°31'0 0.0
2019-Aug-17 22:30N 48°43' W 122°31'0 0.0
2019-Aug-17 22:00N 48°43' W 122°31'0 0.0
2019-Aug-17 21:30N 48°43' W 122°31'0 0.3
2019-Aug-17 21:00N 48°43' W 122°31'2 4.5
2019-Aug-17 20:30N 48°41' W 122°32'3 5.7
2019-Aug-17 20:00N 48°39' W 122°34'4 8.8
2019-Aug-17 19:30N 48°40' W 122°40'5 9.6
2019-Aug-17 19:00N 48°41' W 122°47'4 8.8
2019-Aug-17 18:30N 48°44' W 122°53'7 6.5
2019-Aug-17 17:30N 48°41' W 123°01'3 6.0
2019-Aug-17 17:00N 48°39' W 123°06'3 5.7
2019-Aug-17 16:30N 48°39' W 123°10'1 2.4
2019-Aug-17 16:00N 48°40' W 123°11'0 0.0
2019-Aug-17 15:30N 48°40' W 123°11'0 0.0
2019-Aug-17 15:00N 48°40' W 123°11'0 0.0
2019-Aug-17 14:30N 48°40' W 123°11'0 0.0
2019-Aug-17 14:00N 48°40' W 123°11'0 0.0
2019-Aug-17 13:30N 48°40' W 123°11'0 0.0
2019-Aug-17 13:00N 48°40' W 123°11'0 0.0
2019-Aug-17 12:30N 48°40' W 123°11'0 0.0
2019-Aug-17 12:00N 48°40' W 123°11'0 0.0
2019-Aug-17 11:30N 48°40' W 123°11'0 0.0
2019-Aug-17 11:00N 48°40' W 123°11'0 0.0
2019-Aug-17 10:30N 48°40' W 123°11'0 0.0
2019-Aug-17 10:00N 48°40' W 123°11'0 0.0
2019-Aug-17 09:30N 48°40' W 123°11'0 0.0
2019-Aug-17 09:00N 48°40' W 123°11'0 0.0
2019-Aug-17 08:30N 48°40' W 123°11'0 0.0
2019-Aug-17 08:00N 48°40' W 123°11'0 0.0
2019-Aug-17 07:30N 48°40' W 123°11'0 0.0
2019-Aug-17 07:00N 48°40' W 123°11'0 0.0
2019-Aug-17 06:30N 48°40' W 123°11'0 0.0
2019-Aug-17 06:00N 48°40' W 123°11'0 0.0
2019-Aug-17 05:30N 48°40' W 123°11'0 0.0
2019-Aug-17 05:00N 48°40' W 123°11'0 0.0
2019-Aug-17 04:30N 48°40' W 123°11'0 0.0
2019-Aug-17 04:00N 48°40' W 123°11'0 0.0
2019-Aug-17 03:30N 48°40' W 123°11'0 0.0
2019-Aug-17 03:00N 48°40' W 123°11'0 0.0
2019-Aug-17 02:30N 48°40' W 123°11'0 0.0
2019-Aug-17 02:00N 48°40' W 123°11'0 0.0
2019-Aug-17 01:30N 48°40' W 123°11'0 0.8
2019-Aug-17 01:00N 48°40' W 123°11'3 6.2
2019-Aug-17 00:30N 48°37' W 123°10'0 0.0
2019-Aug-17 00:00N 48°37' W 123°10'0 0.0
2019-Aug-16 23:30N 48°37' W 123°10'0 0.0
2019-Aug-16 23:00N 48°37' W 123°10'0 0.0
2019-Aug-16 22:30N 48°37' W 123°10'0 0.0
2019-Aug-16 22:00N 48°37' W 123°10'0 0.0
2019-Aug-16 21:30N 48°37' W 123°10'0 0.0
2019-Aug-16 21:00N 48°37' W 123°10'0 0.0
2019-Aug-16 20:30N 48°37' W 123°10'0 0.0
2019-Aug-16 20:00N 48°37' W 123°10'1 2.4
2019-Aug-16 19:30N 48°38' W 123°10'3 6.3
2019-Aug-16 19:00N 48°38' W 123°05'1 2.9
2019-Aug-16 18:30N 48°37' W 123°04'1 2.4
2019-Aug-16 18:00N 48°36' W 123°03'1 1.0
2019-Aug-16 17:30N 48°36' W 123°03'3 6.5
2019-Aug-16 17:00N 48°34' W 122°59'0 0.2
2019-Aug-16 16:30N 48°34' W 122°59'0 0.1
2019-Aug-16 16:00N 48°34' W 122°59'0 0.0
2019-Aug-16 15:30N 48°34' W 122°59'0 0.0
2019-Aug-16 15:00N 48°34' W 122°59'0 0.0
2019-Aug-16 14:30N 48°34' W 122°59'0 0.0
2019-Aug-16 14:00N 48°34' W 122°59'0 0.0
2019-Aug-16 13:30N 48°34' W 122°59'0 0.1
2019-Aug-16 13:00N 48°34' W 122°59'0 0.0
2019-Aug-16 12:30N 48°34' W 122°59'0 0.1
2019-Aug-16 12:00N 48°34' W 122°59'0 0.0
2019-Aug-16 11:30N 48°34' W 122°59'0 0.1
2019-Aug-16 11:00N 48°34' W 122°59'0 0.1
2019-Aug-16 10:30N 48°34' W 122°59'0 0.0
2019-Aug-16 10:00N 48°34' W 122°59'0 0.0
2019-Aug-16 09:30N 48°34' W 122°59'0 0.0
2019-Aug-16 09:00N 48°34' W 122°59'0 0.0
2019-Aug-16 08:30N 48°34' W 122°59'0 0.0
2019-Aug-16 08:00N 48°34' W 122°59'0 0.1
2019-Aug-16 07:30N 48°34' W 122°59'0 0.0
2019-Aug-16 07:00N 48°34' W 122°59'0 0.1
2019-Aug-16 06:30N 48°34' W 122°59'0 0.0
2019-Aug-16 06:00N 48°34' W 122°59'0 0.1
2019-Aug-16 05:31N 48°34' W 122°59'0 0.0
2019-Aug-16 05:00N 48°34' W 122°59'0 0.1
2019-Aug-16 04:30N 48°34' W 122°59'0 0.1
2019-Aug-16 04:01N 48°34' W 122°59'0 0.0
2019-Aug-16 03:30N 48°34' W 122°59'0 0.0
2019-Aug-16 03:00N 48°34' W 122°59'0 0.1
2019-Aug-16 02:30N 48°34' W 122°59'0 0.0
2019-Aug-16 02:00N 48°34' W 122°59'0 0.1
2019-Aug-16 01:31N 48°34' W 122°59'2 3.3
2019-Aug-16 01:00N 48°33' W 123°01'0 0.0
2019-Aug-16 00:30N 48°33' W 123°01'0 0.0
2019-Aug-16 00:00N 48°33' W 123°01'0 0.0
2019-Aug-15 23:31N 48°33' W 123°01'0 0.0
2019-Aug-15 23:01N 48°33' W 123°01'0 0.0
2019-Aug-15 22:30N 48°33' W 123°01'0 0.1
2019-Aug-15 22:01N 48°33' W 123°01'0 0.1
2019-Aug-15 21:30N 48°33' W 123°01'0 0.0
2019-Aug-15 21:00N 48°33' W 123°01'0 0.1
2019-Aug-15 20:31N 48°33' W 123°01'1 2.4
2019-Aug-15 20:01N 48°33' W 122°59'2 3.5
2019-Aug-15 19:31N 48°32' W 122°56'0 0.7
2019-Aug-15 19:01N 48°32' W 122°56'0 0.6
2019-Aug-15 18:30N 48°32' W 122°56'2 3.3
2019-Aug-15 18:00N 48°34' W 122°55'2 4.3
2019-Aug-15 17:30N 48°35' W 122°52'2 4.1
2019-Aug-15 17:01N 48°33' W 122°51'0 0.7
2019-Aug-15 16:31N 48°32' W 122°51'0 0.0
2019-Aug-15 16:01N 48°32' W 122°51'0 0.0
2019-Aug-15 15:30N 48°32' W 122°51'0 0.0
2019-Aug-15 15:01N 48°32' W 122°51'0 0.0
2019-Aug-15 14:30N 48°32' W 122°51'0 0.0
2019-Aug-15 14:00N 48°32' W 122°51'0 0.0
2019-Aug-15 13:30N 48°32' W 122°51'0 0.0
2019-Aug-15 13:00N 48°32' W 122°51'0 0.0
2019-Aug-15 12:30N 48°32' W 122°51'0 0.0
2019-Aug-15 12:01N 48°32' W 122°51'0 0.0
2019-Aug-15 11:31N 48°32' W 122°51'0 0.0
2019-Aug-15 11:00N 48°32' W 122°51'0 0.0
2019-Aug-15 10:30N 48°32' W 122°51'0 0.0
2019-Aug-15 10:00N 48°32' W 122°51'0 0.0
2019-Aug-15 09:30N 48°32' W 122°51'0 0.0
2019-Aug-15 09:00N 48°32' W 122°51'0 0.0
2019-Aug-15 08:31N 48°32' W 122°51'0 0.0
2019-Aug-15 08:01N 48°32' W 122°51'0 0.0
2019-Aug-15 07:30N 48°32' W 122°51'0 0.0
2019-Aug-15 07:00N 48°32' W 122°51'0 0.0
2019-Aug-15 06:30N 48°32' W 122°51'0 0.0
2019-Aug-15 06:00N 48°32' W 122°51'0 0.0
2019-Aug-15 05:30N 48°32' W 122°51'0 0.0
2019-Aug-15 05:01N 48°32' W 122°51'0 0.0
2019-Aug-15 04:30N 48°32' W 122°51'0 0.1
2019-Aug-15 04:00N 48°32' W 122°51'0 0.0
2019-Aug-15 03:31N 48°32' W 122°51'0 0.0
2019-Aug-15 03:00N 48°32' W 122°51'0 0.0
2019-Aug-15 02:30N 48°32' W 122°51'1 1.1
2019-Aug-15 02:00N 48°33' W 122°51'4 8.1
2019-Aug-15 01:31N 48°37' W 122°51'4 8.1
2019-Aug-15 01:01N 48°41' W 122°54'1 1.4
2019-Aug-15 00:30N 48°41' W 122°54'0 0.0
2019-Aug-15 00:00N 48°41' W 122°54'0 0.1
2019-Aug-14 23:31N 48°41' W 122°54'0 0.0
2019-Aug-14 23:00N 48°41' W 122°54'0 0.0
2019-Aug-14 22:30N 48°41' W 122°54'0 0.0
2019-Aug-14 22:00N 48°41' W 122°54'0 0.1
2019-Aug-14 21:30N 48°41' W 122°54'0 0.1
2019-Aug-14 21:01N 48°41' W 122°54'3 5.3
2019-Aug-14 20:31N 48°39' W 122°53'4 7.4
2019-Aug-14 20:01N 48°36' W 122°50'3 6.9
2019-Aug-14 19:30N 48°37' W 122°45'4 8.2
2019-Aug-14 19:01N 48°39' W 122°39'4 7.0
2019-Aug-14 18:30N 48°39' W 122°34'4 8.7
2019-Aug-14 18:00N 48°43' W 122°31'0 0.5
2019-Aug-14 17:10N 48°43' W 122°31'0 0.0
2019-Aug-14 16:24N 48°43' W 122°31'0 0.0
2019-Aug-14 16:00N 48°43' W 122°31'0 0.0
2019-Aug-14 15:28N 48°43' W 122°31'0 0.0
2019-Aug-14 15:00N 48°43' W 122°31'0 0.0
2019-Aug-14 14:30N 48°43' W 122°31'0 0.0
2019-Aug-14 14:00N 48°43' W 122°31'0 0.0
2019-Aug-14 13:30N 48°43' W 122°31'0 0.0
2019-Aug-14 13:00N 48°43' W 122°31'0 0.0
2019-Aug-14 12:30N 48°43' W 122°31'0 0.0
2019-Aug-14 11:51N 48°43' W 122°31'0 0.0
2019-Aug-14 11:30N 48°43' W 122°31'0 0.0
2019-Aug-14 11:00N 48°43' W 122°31'0 0.0
2019-Aug-14 10:30N 48°43' W 122°31'0 0.0
2019-Aug-14 10:00N 48°43' W 122°31'0 0.0
2019-Aug-14 09:30N 48°43' W 122°31'0 0.0
2019-Aug-14 09:00N 48°43' W 122°31'0 0.0
2019-Aug-14 07:37N 48°43' W 122°31'0 0.0
2019-Aug-14 07:16N 48°43' W 122°31'0 0.0
2019-Aug-14 07:00N 48°43' W 122°31'0 0.0
2019-Aug-14 06:30N 48°43' W 122°31'0 0.0
2019-Aug-14 05:59N 48°43' W 122°31'0 0.0
2019-Aug-14 05:30N 48°43' W 122°31'0 0.0
2019-Aug-14 05:00N 48°43' W 122°31'0 0.0
2019-Aug-14 04:30N 48°43' W 122°31'0 0.0
2019-Aug-14 04:00N 48°43' W 122°31'0 0.0
2019-Aug-14 03:30N 48°43' W 122°31'0 0.0
2019-Aug-14 02:59N 48°43' W 122°31'0 0.0
2019-Aug-14 02:30N 48°43' W 122°31'0 0.0
2019-Aug-14 01:59N 48°43' W 122°31'0 0.0
2019-Aug-14 01:30N 48°43' W 122°31'0 0.0
2019-Aug-14 00:29N 48°43' W 122°31'0 0.0
2019-Aug-14 00:00N 48°43' W 122°31'0 0.0
2019-Aug-13 23:30N 48°43' W 122°31'0 0.0
2019-Aug-13 23:00N 48°43' W 122°31'0 0.0
2019-Aug-13 22:30N 48°43' W 122°31'0 0.0
2019-Aug-13 22:00N 48°43' W 122°31'0 0.0
2019-Aug-13 21:30N 48°43' W 122°31'0 0.0
2019-Aug-13 21:00N 48°43' W 122°31'0 0.0
2019-Aug-13 20:30N 48°43' W 122°31'0 0.0
2019-Aug-13 20:00N 48°43' W 122°31'0 0.0
2019-Aug-13 19:30N 48°43' W 122°31'0 0.0
2019-Aug-13 19:00N 48°43' W 122°31'0 0.0
2019-Aug-13 18:30N 48°43' W 122°31'0 0.0
2019-Aug-13 18:00N 48°43' W 122°31'0 0.0
2019-Aug-13 17:30N 48°43' W 122°31'0 0.0
2019-Aug-13 17:00N 48°43' W 122°31'0 0.0
2019-Aug-13 16:30N 48°43' W 122°31'0 0.0
2019-Aug-13 16:00N 48°43' W 122°31'0 0.0
2019-Aug-13 15:30N 48°43' W 122°31'0 0.0
2019-Aug-13 15:00N 48°43' W 122°31'0 0.0
2019-Aug-13 14:30N 48°43' W 122°31'0 0.0
2019-Aug-13 14:00N 48°43' W 122°31'0 0.0
2019-Aug-13 13:30N 48°43' W 122°31'0 0.0
2019-Aug-13 13:00N 48°43' W 122°31'0 0.0
2019-Aug-13 12:30N 48°43' W 122°31'0 0.0
2019-Aug-13 12:00N 48°43' W 122°31'0 0.0
2019-Aug-13 11:30N 48°43' W 122°31'0 0.0
2019-Aug-13 11:00N 48°43' W 122°31'0 0.0
2019-Aug-13 10:30N 48°43' W 122°31'0 0.0
2019-Aug-13 10:00N 48°43' W 122°31'0 0.0
2019-Aug-13 09:30N 48°43' W 122°31'0 0.0
2019-Aug-13 09:00N 48°43' W 122°31'0 0.0
2019-Aug-13 08:30N 48°43' W 122°31'0 0.0
2019-Aug-13 08:00N 48°43' W 122°31'0 0.0
2019-Aug-13 07:30N 48°43' W 122°31'0 0.0
2019-Aug-13 07:00N 48°43' W 122°31'0 0.0
2019-Aug-13 06:30N 48°43' W 122°31'0 0.0
2019-Aug-13 06:00N 48°43' W 122°31'0 0.0
2019-Aug-13 05:30N 48°43' W 122°31'0 0.0
2019-Aug-13 05:00N 48°43' W 122°31'0 0.0
2019-Aug-13 04:30N 48°43' W 122°31'0 0.0
2019-Aug-13 04:00N 48°43' W 122°31'0 0.5
2019-Aug-13 03:30N 48°44' W 122°31'1 1.9
2019-Aug-13 03:00N 48°44' W 122°32'1 1.8
2019-Aug-13 02:30N 48°45' W 122°32'1 1.2
2019-Aug-13 01:30N 48°44' W 122°32'1 2.3
2019-Aug-13 01:00N 48°43' W 122°31'0 0.0
2019-Aug-13 00:29N 48°43' W 122°31'0 0.0
2019-Aug-13 00:00N 48°43' W 122°31'0 0.0
2019-Aug-12 23:30N 48°43' W 122°31'0 0.0
2019-Aug-12 23:00N 48°43' W 122°31'0 0.0
2019-Aug-12 22:30N 48°43' W 122°31'0 0.0
2019-Aug-12 22:00N 48°43' W 122°31'0 0.0
2019-Aug-12 21:30N 48°43' W 122°31'0 0.0
2019-Aug-12 20:59N 48°43' W 122°31'0 0.4
2019-Aug-12 20:31N 48°44' W 122°31'1 1.6
2019-Aug-12 20:00N 48°44' W 122°31'0 0.9
2019-Aug-12 19:30N 48°44' W 122°32'0 0.4
2019-Aug-12 18:58N 48°44' W 122°32'1 1.6
2019-Aug-12 18:30N 48°44' W 122°31'1 1.0
2019-Aug-12 18:00N 48°43' W 122°31'0 0.0
2019-Aug-12 17:30N 48°43' W 122°31'0 0.0
2019-Aug-12 17:00N 48°43' W 122°31'0 0.0
2019-Aug-12 16:30N 48°43' W 122°31'0 0.0
2019-Aug-12 16:00N 48°43' W 122°31'0 0.0
2019-Aug-12 15:30N 48°43' W 122°31'0 0.0
2019-Aug-12 15:00N 48°43' W 122°31'0 0.0
2019-Aug-12 14:30N 48°43' W 122°31'0 0.0
2019-Aug-12 14:00N 48°43' W 122°31'0 0.0
2019-Aug-12 13:30N 48°43' W 122°31'0 0.0
2019-Aug-12 13:00N 48°43' W 122°31'0 0.0
2019-Aug-12 12:30N 48°43' W 122°31'0 0.0
2019-Aug-12 12:00N 48°43' W 122°31'0 0.0
2019-Aug-12 11:30N 48°43' W 122°31'0 0.0
2019-Aug-12 11:00N 48°43' W 122°31'0 0.0
2019-Aug-12 10:30N 48°43' W 122°31'0 0.0
2019-Aug-12 10:00N 48°43' W 122°31'0 0.0
2019-Aug-12 09:30N 48°43' W 122°31'0 0.0
2019-Aug-12 09:00N 48°43' W 122°31'  

Dump ship's entire track history